Flight Briefing for CPX654

Departure Arrival
The Florida Keys Marathon International Airport (KMTH)
Click to view FAA NOTAMS
Key West International Airport (KEYW)
Click to view FAA NOTAMS
Departure Time Arrival Time
N/A N/A
Aircraft Distance
SF340AF 40nm
Departure METAR Arrival METAR
KMTH 252353Z AUTO 10003KT 10SM CLR 26/20 A3001 RMK AO2 SLP162 T02610200 10306 20261 55003 KEYW 252353Z 10007KT 10SM CLR 25/21 A3002 RMK AO2 SLP165 T02500211 10278 20250 55004
Suggested Route
JANKA


View recent IFR Routes data
Notes



Charts and Procedures

Charts for KMTH
No chart available
Charts for KEYW
No chart available

Windy.com Weather Map